createdAt,value
2023-05-22T00:00:24.654Z,11.98
2023-05-22T00:02:52.505Z,12.18
2023-05-22T00:05:20.461Z,13.48
2023-05-22T00:07:47.022Z,13.77
2023-05-22T00:10:13.533Z,12.45
2023-05-22T00:12:40.176Z,11.57
2023-05-22T00:15:07.665Z,11.85
2023-05-22T00:17:34.502Z,10.35
2023-05-22T00:20:04.418Z,14.52
2023-05-22T00:22:31.618Z,12.65
2023-05-22T00:24:58.245Z,11.48
2023-05-22T00:27:24.856Z,11.05
2023-05-22T00:29:51.388Z,11.85
2023-05-22T00:32:17.830Z,12.73
2023-05-22T00:34:44.401Z,14.20
2023-05-22T00:37:10.906Z,16.02
2023-05-22T00:39:37.340Z,13.60
2023-05-22T00:42:04.157Z,11.98
2023-05-22T00:44:30.792Z,12.05
2023-05-22T00:46:57.374Z,11.70
2023-05-22T00:49:23.914Z,11.82
2023-05-22T00:51:50.464Z,10.82
2023-05-22T00:54:17.316Z,12.05
2023-05-22T00:56:44.056Z,10.73
2023-05-22T00:59:10.778Z,11.35
2023-05-22T01:01:41.982Z,10.50
2023-05-22T01:04:11.500Z,11.75
2023-05-22T01:06:38.943Z,11.68
2023-05-22T01:09:05.558Z,10.13
2023-05-22T01:11:41.086Z,10.50
2023-05-22T01:14:23.905Z,10.98
2023-05-22T01:17:08.809Z,11.23
2023-05-22T01:20:07.582Z,11.68
2023-05-22T01:22:43.350Z,10.05
2023-05-22T01:25:34.910Z,11.13
2023-05-22T01:28:11.917Z,10.40
2023-05-22T01:30:49.231Z,9.90
2023-05-22T01:33:18.027Z,10.15
2023-05-22T01:35:48.619Z,9.85
2023-05-22T01:38:16.768Z,9.63
2023-05-22T01:40:45.742Z,10.25
2023-05-22T01:43:14.693Z,10.40
2023-05-22T01:45:41.355Z,10.13
2023-05-22T01:48:07.948Z,12.05
2023-05-22T01:50:34.711Z,9.82
2023-05-22T01:53:13.487Z,10.00
2023-05-22T01:55:52.038Z,9.27
2023-05-22T01:58:41.342Z,10.05
2023-05-22T02:01:12.000Z,8.77
2023-05-22T02:03:40.110Z,9.60
2023-05-22T02:06:08.945Z,10.15
2023-05-22T02:08:40.462Z,9.45
2023-05-22T02:11:09.688Z,9.27
2023-05-22T02:13:37.473Z,10.55
2023-05-22T02:16:04.625Z,9.55
2023-05-22T02:18:31.498Z,11.38
2023-05-22T02:20:58.366Z,8.77
2023-05-22T02:23:25.637Z,10.55
2023-05-22T02:25:52.269Z,9.43
2023-05-22T02:28:18.703Z,7.97
2023-05-22T02:30:45.137Z,8.65
2023-05-22T02:33:11.697Z,8.95
2023-05-22T02:35:38.215Z,11.70
2023-05-22T02:38:04.853Z,8.27
2023-05-22T02:40:31.325Z,7.93
2023-05-22T02:42:57.755Z,8.23
2023-05-22T02:45:24.247Z,8.27
2023-05-22T02:47:50.753Z,10.40
2023-05-22T02:50:17.455Z,11.63
2023-05-22T02:52:45.169Z,12.23
2023-05-22T02:55:12.001Z,12.88
2023-05-22T02:57:38.465Z,13.30
2023-05-22T03:00:11.389Z,13.10
2023-05-22T03:02:38.968Z,11.68
2023-05-22T03:05:06.156Z,10.98
2023-05-22T03:07:32.654Z,12.85
2023-05-22T03:09:59.132Z,13.65
2023-05-22T03:12:25.928Z,12.80
2023-05-22T03:14:52.383Z,13.68
2023-05-22T03:17:18.850Z,13.57
2023-05-22T03:19:45.283Z,12.13
2023-05-22T03:22:11.725Z,10.48
2023-05-22T03:24:38.178Z,13.73
2023-05-22T03:27:04.933Z,13.85
2023-05-22T03:29:31.636Z,10.52
2023-05-22T03:31:58.868Z,10.75
2023-05-22T03:34:26.988Z,13.73
2023-05-22T03:36:53.474Z,15.18
2023-05-22T03:39:19.897Z,12.93
2023-05-22T03:41:46.334Z,12.23
2023-05-22T03:44:12.763Z,12.73
2023-05-22T03:46:39.217Z,13.18
2023-05-22T03:49:05.706Z,13.95
2023-05-22T03:51:32.421Z,14.57
2023-05-22T03:53:58.896Z,15.00
2023-05-22T03:56:25.774Z,19.13
2023-05-22T03:58:52.350Z,15.68
2023-05-22T04:01:18.866Z,22.23
2023-05-22T04:03:45.444Z,26.02
2023-05-22T04:06:13.723Z,22.13
2023-05-22T04:08:40.446Z,20.10
2023-05-22T04:11:06.977Z,24.38
2023-05-22T04:13:33.475Z,25.10
2023-05-22T04:16:01.944Z,25.70
2023-05-22T04:18:28.771Z,23.45
2023-05-22T04:20:55.196Z,26.25
2023-05-22T04:23:21.712Z,23.92
2023-05-22T04:25:48.308Z,26.10
2023-05-22T04:28:17.517Z,27.05
2023-05-22T04:30:44.552Z,24.30
2023-05-22T04:33:11.296Z,20.58
2023-05-22T04:35:37.834Z,26.42
2023-05-22T04:38:06.491Z,21.52
2023-05-22T04:40:34.256Z,28.05
2023-05-22T04:43:01.478Z,31.33
2023-05-22T04:45:28.861Z,30.65
2023-05-22T04:47:56.210Z,31.63
2023-05-22T04:50:23.879Z,29.40
2023-05-22T04:52:50.502Z,30.73
2023-05-22T04:55:17.227Z,25.80
2023-05-22T04:57:47.218Z,31.73
2023-05-22T05:00:15.934Z,32.25
2023-05-22T05:02:42.879Z,30.95
2023-05-22T05:05:09.560Z,30.75
2023-05-22T05:07:39.800Z,31.45
2023-05-22T05:10:07.260Z,26.15
2023-05-22T05:12:34.059Z,31.00
2023-05-22T05:15:00.757Z,31.08
2023-05-22T05:17:27.384Z,27.90
2023-05-22T05:19:54.226Z,32.00
2023-05-22T05:22:20.660Z,30.05
2023-05-22T05:24:47.279Z,25.25
2023-05-22T05:27:14.087Z,33.13
2023-05-22T05:29:41.243Z,30.38
2023-05-22T05:32:08.438Z,34.65
2023-05-22T05:34:35.037Z,36.03
2023-05-22T05:37:02.739Z,30.38
2023-05-22T05:39:29.552Z,36.58
2023-05-22T05:41:56.236Z,31.17
2023-05-22T05:44:22.742Z,28.85
2023-05-22T05:46:49.271Z,31.90
2023-05-22T05:49:15.745Z,30.83
2023-05-22T05:51:42.193Z,28.83
2023-05-22T05:54:08.658Z,30.75
2023-05-22T05:56:35.727Z,27.10
2023-05-22T05:59:02.155Z,32.60
2023-05-22T06:01:32.898Z,32.60
2023-05-22T06:04:03.172Z,34.03
2023-05-22T06:09:05.590Z,28.95
2023-05-22T06:11:35.045Z,30.67
2023-05-22T06:14:03.202Z,34.97
2023-05-22T06:16:30.054Z,37.47
2023-05-22T06:18:58.754Z,35.80
2023-05-22T06:21:25.327Z,34.95
2023-05-22T06:23:52.041Z,35.40
2023-05-22T06:26:18.718Z,35.58
2023-05-22T06:28:45.539Z,32.70
2023-05-22T06:31:12.075Z,31.40
2023-05-22T06:33:40.590Z,37.05
2023-05-22T06:36:08.832Z,35.67
2023-05-22T06:38:35.462Z,32.72
2023-05-22T06:41:02.044Z,34.03
2023-05-22T06:43:28.478Z,30.23
2023-05-22T06:45:55.033Z,25.30
2023-05-22T06:48:21.792Z,38.42
2023-05-22T06:50:48.270Z,41.35
2023-05-22T06:53:14.773Z,32.85
2023-05-22T06:55:41.927Z,41.70
2023-05-22T06:58:08.622Z,38.90
2023-05-22T07:00:35.240Z,40.13
2023-05-22T07:03:02.145Z,41.30
2023-05-22T07:05:28.757Z,43.05
2023-05-22T07:07:55.555Z,40.78
2023-05-22T07:10:22.143Z,34.50
2023-05-22T07:12:48.633Z,39.40
2023-05-22T07:15:15.169Z,37.80
2023-05-22T07:17:41.836Z,36.97
2023-05-22T07:20:09.661Z,37.15
2023-05-22T07:22:36.126Z,37.60
2023-05-22T07:25:02.676Z,37.22
2023-05-22T07:27:29.198Z,36.63
2023-05-22T07:29:55.728Z,36.53
2023-05-22T07:32:22.305Z,35.35
2023-05-22T07:34:48.838Z,31.90
2023-05-22T07:37:15.350Z,34.53
2023-05-22T07:39:42.950Z,25.73
2023-05-22T07:42:09.535Z,34.17
2023-05-22T07:44:36.240Z,33.60
2023-05-22T07:47:02.757Z,34.80
2023-05-22T07:49:29.232Z,34.60
2023-05-22T07:51:55.897Z,37.60
2023-05-22T07:54:22.549Z,32.85
2023-05-22T07:56:49.571Z,30.40
2023-05-22T07:59:18.571Z,30.90
2023-05-22T08:01:45.370Z,24.55
2023-05-22T08:04:12.042Z,30.95
2023-05-22T08:06:39.562Z,31.98
2023-05-22T08:09:06.151Z,30.48
2023-05-22T08:11:33.985Z,30.25
2023-05-22T08:14:00.449Z,28.65
2023-05-22T08:16:26.996Z,27.98
2023-05-22T08:18:53.509Z,29.27
2023-05-22T08:21:20.063Z,24.83
2023-05-22T08:23:46.603Z,27.60
2023-05-22T08:26:13.084Z,29.67
2023-05-22T08:28:43.981Z,28.65
2023-05-22T08:31:11.721Z,28.48
2023-05-22T08:33:38.455Z,23.40
2023-05-22T08:36:05.449Z,30.10
2023-05-22T08:38:31.947Z,32.97
2023-05-22T08:40:58.527Z,29.77
2023-05-22T08:43:25.069Z,28.13
2023-05-22T08:45:57.820Z,29.35
2023-05-22T08:48:24.727Z,27.90
2023-05-22T08:50:57.324Z,30.35
2023-05-22T08:53:25.831Z,25.58
2023-05-22T08:55:53.648Z,31.67
2023-05-22T08:58:21.054Z,29.52
2023-05-22T09:00:48.122Z,30.52
2023-05-22T09:03:15.799Z,29.83
2023-05-22T09:05:42.465Z,29.98
2023-05-22T09:08:19.767Z,28.80
2023-05-22T09:10:47.254Z,29.67
2023-05-22T09:13:33.043Z,28.20
2023-05-22T09:16:07.480Z,28.42
2023-05-22T09:18:33.974Z,27.65
2023-05-22T09:21:02.064Z,29.90
2023-05-22T09:23:29.667Z,28.15
2023-05-22T09:25:57.435Z,29.63
2023-05-22T09:28:24.556Z,31.15
2023-05-22T09:30:51.883Z,26.70
2023-05-22T09:33:19.272Z,28.05
2023-05-22T09:35:51.687Z,29.02
2023-05-22T09:38:18.290Z,27.52
2023-05-22T09:40:44.777Z,29.83
2023-05-22T09:43:12.733Z,30.33
2023-05-22T09:45:39.457Z,31.35
2023-05-22T09:48:07.084Z,24.90
2023-05-22T09:50:33.777Z,28.73
2023-05-22T09:53:04.898Z,24.90
2023-05-22T09:55:32.219Z,27.05
2023-05-22T09:58:03.159Z,29.02
2023-05-22T10:00:30.577Z,29.23
2023-05-22T10:03:08.987Z,29.13
2023-05-22T10:05:38.018Z,27.40
2023-05-22T10:08:15.057Z,30.23
2023-05-22T10:10:43.412Z,31.55
2023-05-22T10:13:11.003Z,30.33
2023-05-22T10:15:38.386Z,28.08
2023-05-22T10:18:05.809Z,30.42
2023-05-22T10:20:32.903Z,28.85
2023-05-22T10:23:02.660Z,32.72
2023-05-22T10:25:30.265Z,30.35
2023-05-22T10:27:58.364Z,33.38
2023-05-22T10:30:34.042Z,35.90
2023-05-22T10:33:12.270Z,33.25
2023-05-22T10:35:44.427Z,33.83
2023-05-22T10:39:08.131Z,34.55
2023-05-22T10:41:35.118Z,32.00
2023-05-22T10:44:02.975Z,31.48
2023-05-22T10:46:34.401Z,34.47
2023-05-22T10:49:00.969Z,30.65
2023-05-22T10:51:27.993Z,33.10
2023-05-22T10:54:05.612Z,31.75
2023-05-22T10:56:35.155Z,36.50
2023-05-22T10:59:05.272Z,30.52
2023-05-22T11:01:36.133Z,30.40
2023-05-22T11:04:06.804Z,34.17
2023-05-22T11:06:33.306Z,30.33
2023-05-22T11:09:00.023Z,31.63
2023-05-22T11:11:27.324Z,35.28
2023-05-22T11:14:03.185Z,31.23
2023-05-22T11:16:33.747Z,31.52
2023-05-22T11:19:21.162Z,32.97
2023-05-22T11:21:49.568Z,31.85
2023-05-22T11:24:17.935Z,30.40
2023-05-22T11:26:44.905Z,30.83
2023-05-22T11:29:11.575Z,33.70
2023-05-22T11:31:38.661Z,25.65
2023-05-22T11:34:05.629Z,29.48
2023-05-22T11:36:32.361Z,31.33
2023-05-22T11:39:00.067Z,31.35
2023-05-22T11:41:34.164Z,26.75
2023-05-22T11:44:01.580Z,28.10
2023-05-22T11:46:30.163Z,30.35
2023-05-22T11:48:56.946Z,31.15
2023-05-22T11:51:23.502Z,31.65
2023-05-22T11:53:49.966Z,31.48
2023-05-22T11:56:21.733Z,31.52
2023-05-22T11:58:51.893Z,32.55
2023-05-22T12:01:18.501Z,26.17
2023-05-22T12:03:45.111Z,25.25
2023-05-22T12:06:11.974Z,30.02
2023-05-22T12:08:39.308Z,29.60
2023-05-22T12:11:07.039Z,31.63
2023-05-22T12:13:33.535Z,30.75
2023-05-22T12:16:00.948Z,33.53
2023-05-22T12:18:35.378Z,30.00
2023-05-22T12:21:01.926Z,32.03
2023-05-22T12:23:30.017Z,31.30
2023-05-22T12:26:08.610Z,28.42
2023-05-22T12:28:35.334Z,34.25
2023-05-22T12:31:01.804Z,31.80
2023-05-22T12:33:29.594Z,32.42
2023-05-22T12:36:00.328Z,26.75
2023-05-22T12:38:28.051Z,31.63
2023-05-22T12:40:58.273Z,32.95
2023-05-22T12:43:25.418Z,34.03
2023-05-22T12:45:52.001Z,32.40
2023-05-22T12:48:19.352Z,34.42
2023-05-22T12:50:49.219Z,33.15
2023-05-22T12:53:15.845Z,34.40
2023-05-22T12:55:43.311Z,32.33
2023-05-22T12:58:09.800Z,34.63
2023-05-22T13:00:36.334Z,31.75
2023-05-22T13:03:03.781Z,30.90
2023-05-22T13:05:30.457Z,33.88
2023-05-22T13:07:57.052Z,32.83
2023-05-22T13:10:23.525Z,34.00
2023-05-22T13:12:51.226Z,25.33
2023-05-22T13:15:18.517Z,30.50
2023-05-22T13:17:45.702Z,32.70
2023-05-22T13:20:13.418Z,29.35
2023-05-22T13:22:41.237Z,29.48
2023-05-22T13:25:08.110Z,31.73
2023-05-22T13:27:34.613Z,30.95
2023-05-22T13:30:01.152Z,26.23
2023-05-22T13:32:27.701Z,30.23
2023-05-22T13:34:54.182Z,30.77
2023-05-22T13:37:20.903Z,35.25
2023-05-22T13:39:47.706Z,31.75
2023-05-22T13:42:14.434Z,34.40
2023-05-22T13:44:41.042Z,32.25
2023-05-22T13:47:07.735Z,33.75
2023-05-22T13:49:34.358Z,35.53
2023-05-22T13:52:00.838Z,28.48
2023-05-22T13:54:27.586Z,31.15
2023-05-22T13:56:54.203Z,33.70
2023-05-22T13:59:20.649Z,34.50
2023-05-22T14:01:47.082Z,29.20
2023-05-22T14:04:13.538Z,35.58
2023-05-22T14:06:40.077Z,32.75
2023-05-22T14:09:07.934Z,32.47
2023-05-22T14:11:34.556Z,33.45
2023-05-22T14:14:01.152Z,34.08
2023-05-22T14:16:27.688Z,34.80
2023-05-22T14:18:54.225Z,30.80
2023-05-22T14:21:20.730Z,32.22
2023-05-22T14:23:47.202Z,35.63
2023-05-22T14:26:14.601Z,33.90
2023-05-22T14:28:41.660Z,30.38
2023-05-22T14:31:08.143Z,33.33
2023-05-22T14:33:35.813Z,33.78
2023-05-22T14:36:02.688Z,35.03
2023-05-22T14:38:33.490Z,31.77
2023-05-22T14:41:01.062Z,33.03
2023-05-22T14:43:27.544Z,34.15
2023-05-22T14:45:55.822Z,34.80
2023-05-22T14:48:26.407Z,30.90
2023-05-22T14:50:56.375Z,32.75
2023-05-22T14:53:23.214Z,34.17
2023-05-22T14:55:50.070Z,34.53
2023-05-22T14:58:16.598Z,33.70
2023-05-22T15:00:43.074Z,32.55
2023-05-22T15:03:09.626Z,30.00
2023-05-22T15:05:36.321Z,35.80
2023-05-22T15:08:02.807Z,38.45
2023-05-22T15:10:29.333Z,33.38
2023-05-22T15:12:55.812Z,38.65
2023-05-22T15:15:22.452Z,36.75
2023-05-22T15:17:48.919Z,31.77
2023-05-22T15:20:15.509Z,33.05
2023-05-22T15:22:41.978Z,35.53
2023-05-22T15:25:12.266Z,33.90
2023-05-22T15:27:39.647Z,35.20
2023-05-22T15:30:09.510Z,34.72
2023-05-22T15:32:37.035Z,36.42
2023-05-22T15:35:05.411Z,34.00
2023-05-22T15:37:33.610Z,34.35
2023-05-22T15:40:01.401Z,32.40
2023-05-22T15:42:28.065Z,32.42
2023-05-22T15:44:54.576Z,33.53
2023-05-22T15:47:21.079Z,33.30
2023-05-22T15:49:47.767Z,35.30
2023-05-22T15:52:14.244Z,32.13
2023-05-22T15:54:40.804Z,32.97
2023-05-22T15:57:07.293Z,26.40
2023-05-22T15:59:33.824Z,31.17
2023-05-22T16:02:00.342Z,31.67
2023-05-22T16:04:26.801Z,31.52
2023-05-22T16:06:53.286Z,29.50
2023-05-22T16:09:19.812Z,32.97
2023-05-22T16:11:46.555Z,26.83
2023-05-22T16:14:13.341Z,31.80
2023-05-22T16:16:40.044Z,30.92
2023-05-22T16:19:06.720Z,32.17
2023-05-22T16:21:33.259Z,29.92
2023-05-22T16:23:59.769Z,31.08
2023-05-22T16:26:26.901Z,30.65
2023-05-22T16:28:53.410Z,30.33
2023-05-22T16:31:20.061Z,23.48
2023-05-22T16:33:46.582Z,28.27
2023-05-22T16:36:13.230Z,26.95
2023-05-22T16:38:39.795Z,25.80
2023-05-22T16:41:06.269Z,26.10
2023-05-22T16:43:32.727Z,29.80
2023-05-22T16:45:59.298Z,28.98
2023-05-22T16:48:25.754Z,28.40
2023-05-22T16:50:52.283Z,26.30
2023-05-22T16:53:18.789Z,23.50
2023-05-22T16:55:45.471Z,25.00
2023-05-22T16:58:12.604Z,25.63
2023-05-22T17:00:40.192Z,23.35
2023-05-22T17:03:08.188Z,22.17
2023-05-22T17:05:35.259Z,23.02
2023-05-22T17:08:01.801Z,20.95
2023-05-22T17:10:28.325Z,23.15
2023-05-22T17:12:54.933Z,19.10
2023-05-22T17:15:21.382Z,20.90
2023-05-22T17:17:47.865Z,22.08
2023-05-22T17:20:14.316Z,20.90
2023-05-22T17:22:42.393Z,22.23
2023-05-22T17:25:09.352Z,21.38
2023-05-22T17:27:36.834Z,20.77
2023-05-22T17:30:04.877Z,21.05
2023-05-22T17:32:31.570Z,17.50
2023-05-22T17:34:58.249Z,12.05
2023-05-22T17:37:24.726Z,11.20
2023-05-22T17:39:51.778Z,10.38
2023-05-22T17:42:18.365Z,8.60
2023-05-22T17:44:45.060Z,8.15
2023-05-22T17:47:13.243Z,10.00
2023-05-22T17:49:39.985Z,9.05
2023-05-22T17:52:08.479Z,8.40
2023-05-22T17:54:35.746Z,8.73
2023-05-22T17:57:04.104Z,10.40
2023-05-22T17:59:32.503Z,8.48
2023-05-22T18:01:59.138Z,8.02
2023-05-22T18:04:25.988Z,8.93
2023-05-22T18:06:52.529Z,8.10
2023-05-22T18:09:18.999Z,7.63
2023-05-22T18:11:45.664Z,8.05
2023-05-22T18:14:12.197Z,7.38
2023-05-22T18:16:38.719Z,7.53
2023-05-22T18:19:05.277Z,7.63
2023-05-22T18:21:32.275Z,8.20
2023-05-22T18:23:59.006Z,8.82
2023-05-22T18:26:26.686Z,7.65
2023-05-22T18:28:53.191Z,7.40
2023-05-22T18:31:19.982Z,8.52
2023-05-22T18:33:46.608Z,9.15
2023-05-22T18:36:13.809Z,8.07
2023-05-22T18:38:40.432Z,7.00
2023-05-22T18:41:07.256Z,9.52
2023-05-22T18:43:33.793Z,7.88
2023-05-22T18:46:00.328Z,9.90
2023-05-22T18:48:28.165Z,7.32
2023-05-22T18:50:57.358Z,7.40
2023-05-22T18:53:25.166Z,8.13
2023-05-22T18:55:53.670Z,9.18
2023-05-22T18:58:20.474Z,7.93
2023-05-22T19:00:47.031Z,8.57
2023-05-22T19:03:14.047Z,8.75
2023-05-22T19:05:40.691Z,7.63
2023-05-22T19:08:07.249Z,6.57
2023-05-22T19:10:33.742Z,8.05
2023-05-22T19:13:00.291Z,9.07
2023-05-22T19:15:26.815Z,8.60
2023-05-22T19:17:53.357Z,9.77
2023-05-22T19:20:19.857Z,9.02
2023-05-22T19:22:46.416Z,9.55
2023-05-22T19:25:12.925Z,9.07
2023-05-22T19:27:39.606Z,10.15
2023-05-22T19:30:07.198Z,7.82
2023-05-22T19:32:33.867Z,9.13
2023-05-22T19:35:00.490Z,7.55
2023-05-22T19:37:26.967Z,7.03
2023-05-22T19:39:54.219Z,8.85
2023-05-22T19:42:20.750Z,8.45
2023-05-22T19:44:47.233Z,7.60
2023-05-22T19:47:13.855Z,8.23
2023-05-22T19:49:40.502Z,7.82
2023-05-22T19:52:06.927Z,8.73
2023-05-22T19:54:34.685Z,8.07
2023-05-22T19:57:01.343Z,10.70
2023-05-22T19:59:27.805Z,6.82
2023-05-22T20:01:54.330Z,7.13
2023-05-22T20:04:21.480Z,8.50
2023-05-22T20:06:48.377Z,9.38
2023-05-22T20:09:15.008Z,7.88
2023-05-22T20:11:41.474Z,6.32
2023-05-22T20:14:08.258Z,6.05
2023-05-22T20:16:34.933Z,7.10
2023-05-22T20:19:02.504Z,6.50
2023-05-22T20:21:29.127Z,6.20
2023-05-22T20:23:55.636Z,6.65
2023-05-22T20:26:22.271Z,6.60
2023-05-22T20:28:48.707Z,8.10
2023-05-22T20:31:15.194Z,6.70
2023-05-22T20:33:41.698Z,7.07
2023-05-22T20:36:08.637Z,6.13
2023-05-22T20:38:35.146Z,7.45
2023-05-22T20:41:02.562Z,7.22
2023-05-22T20:43:30.736Z,6.82
2023-05-22T20:45:57.502Z,6.63
2023-05-22T20:48:24.073Z,5.65
2023-05-22T20:50:50.663Z,6.05
2023-05-22T20:53:17.560Z,6.53
2023-05-22T20:55:45.053Z,7.07
2023-05-22T20:58:11.585Z,6.43
2023-05-22T21:00:38.192Z,6.47
2023-05-22T21:03:04.811Z,6.03
2023-05-22T21:05:31.436Z,8.43
2023-05-22T21:07:57.914Z,7.60
2023-05-22T21:10:24.333Z,7.35
2023-05-22T21:12:50.850Z,7.05
2023-05-22T21:15:17.499Z,6.40
2023-05-22T21:17:44.143Z,6.60
2023-05-22T21:20:11.048Z,6.55
2023-05-22T21:22:37.531Z,7.47
2023-05-22T21:25:04.314Z,6.22
2023-05-22T21:27:30.765Z,8.10
2023-05-22T21:29:57.251Z,5.85
2023-05-22T21:32:23.751Z,6.13
2023-05-22T21:34:50.327Z,8.80
2023-05-22T21:37:16.827Z,6.03
2023-05-22T21:39:43.282Z,6.72
2023-05-22T21:42:09.935Z,6.00
2023-05-22T21:44:37.421Z,6.43
2023-05-22T21:47:04.026Z,6.60
2023-05-22T21:49:30.594Z,7.18
2023-05-22T21:51:57.131Z,8.98
2023-05-22T21:54:23.621Z,6.38
2023-05-22T21:56:50.108Z,6.10
2023-05-22T21:59:16.609Z,6.70
2023-05-22T22:01:43.326Z,6.80
2023-05-22T22:04:09.888Z,7.50
2023-05-22T22:06:36.852Z,5.85
2023-05-22T22:09:03.585Z,6.75
2023-05-22T22:11:30.151Z,6.85
2023-05-22T22:13:56.806Z,5.80
2023-05-22T22:16:24.354Z,5.93
2023-05-22T22:18:51.321Z,6.43
2023-05-22T22:21:17.907Z,6.93
2023-05-22T22:23:44.327Z,5.95
2023-05-22T22:26:12.134Z,6.55
2023-05-22T22:28:38.629Z,5.70
2023-05-22T22:31:05.133Z,5.75
2023-05-22T22:33:32.754Z,5.70
2023-05-22T22:35:59.602Z,7.03
2023-05-22T22:38:26.833Z,5.38
2023-05-22T22:40:53.317Z,6.63
2023-05-22T22:43:19.774Z,5.90
2023-05-22T22:45:46.508Z,5.10
2023-05-22T22:48:13.055Z,5.10
2023-05-22T22:50:39.823Z,4.25
2023-05-22T22:53:06.486Z,5.95
2023-05-22T22:55:33.255Z,5.18
2023-05-22T22:57:59.762Z,5.00
2023-05-22T23:00:26.217Z,5.85
2023-05-22T23:02:52.750Z,4.95
2023-05-22T23:05:20.534Z,6.00
2023-05-22T23:07:47.783Z,4.97
2023-05-22T23:10:14.956Z,5.20
2023-05-22T23:12:41.792Z,6.03
2023-05-22T23:15:13.219Z,5.25
2023-05-22T23:17:41.277Z,4.70
2023-05-22T23:20:08.946Z,5.68
2023-05-22T23:22:35.613Z,5.85
2023-05-22T23:25:02.284Z,7.15
2023-05-22T23:27:28.818Z,7.03
2023-05-22T23:29:55.326Z,6.28
2023-05-22T23:32:22.242Z,6.43
2023-05-22T23:34:48.795Z,7.20
2023-05-22T23:37:15.680Z,7.18
2023-05-22T23:39:42.123Z,6.40
2023-05-22T23:42:12.106Z,8.93
2023-05-22T23:44:38.576Z,7.82
2023-05-22T23:47:06.579Z,7.82
2023-05-22T23:49:33.329Z,7.63
2023-05-22T23:52:00.007Z,8.38
2023-05-22T23:54:26.502Z,7.50
2023-05-22T23:56:53.665Z,9.40
2023-05-22T23:59:21.521Z,7.00
